Aviation Digital Data Service (ADDS)

Output produced by METARs form (0347 UTC 05 June 2020)
found at http://www.aviationweather.gov/metar/data/
 
METAR text: RKSO 050257Z 27005KT 5SM HZ SCT020 BKN320 23/17 A2974 RMK AO2A SLP074 T02330173 58005 $
Conditions at: RKSO (OSAN (US/KOR-AFB, KR) observed 0257 UTC 05 June 2020
Temperature: 23.3°C (74°F)
Dewpoint: 17.3°C (63°F) [RH = 69%]
Pressure (altimeter): 29.74 inches Hg (1007.2 mb)
[Sea-level pressure: 1007.4 mb]
Winds: from the W (270 degrees) at 6 MPH (5 knots; 2.6 m/s)
Visibility: 5 miles ( 8 km)
Ceiling: 32000 feet AGL
Clouds: scattered clouds at 2000 feet AGL
broken clouds at 32000 feet AGL
Weather: HZ  (haze)
SOME DATA ABOVE MAY BE INACCURATE!!!
"$" is an indication the sensor requires maintenance

METAR text: RKSO 050239Z VRB03KT 5SM HZ BKN021 23/18 A2975 RMK AO2A SLP077
Conditions at: RKSO (OSAN (US/KOR-AFB, KR) observed 0239 UTC 05 June 2020
Temperature: 23.0°C (73°F)
Dewpoint: 18.0°C (64°F) [RH = 73%]
Pressure (altimeter): 29.75 inches Hg (1007.5 mb)
[Sea-level pressure: 1007.7 mb]
Winds: variable direction winds at 3 MPH (3 knots; 1.5 m/s)
Visibility: 5 miles ( 8 km)
Ceiling: 2100 feet AGL
Clouds: broken clouds at 2100 feet AGL
Weather: HZ  (haze)

METAR text: RKSO 050156Z 00000KT 5SM BR OVC020 22/18 A2975 RMK AO2A
Conditions at: RKSO (OSAN (US/KOR-AFB, KR) observed 0156 UTC 05 June 2020
Temperature: 22.0°C (72°F)
Dewpoint: 18.0°C (64°F) [RH = 78%]
Pressure (altimeter): 29.75 inches Hg (1007.5 mb)
Winds: calm
Visibility: 5 miles ( 8 km)
Ceiling: 2000 feet AGL
Clouds: overcast cloud deck at 2000 feet AGL
Weather: BR  (mist)

METAR text: RKSO 050056Z 00000KT 4SM BR OVC014 20/18 A2976 RMK SLP080
Conditions at: RKSO (OSAN (US/KOR-AFB, KR) observed 0056 UTC 05 June 2020
Temperature: 20.0°C (68°F)
Dewpoint: 18.0°C (64°F) [RH = 88%]
Pressure (altimeter): 29.76 inches Hg (1007.9 mb)
[Sea-level pressure: 1008.0 mb]
Winds: calm
Visibility: 4 miles ( 6 km)
Ceiling: 1400 feet AGL
Clouds: overcast cloud deck at 1400 feet AGL
Weather: BR  (mist)

METAR text: RKSO 050015Z 00000KT 4SM BR OVC011 20/19 A2976 RMK AO2A SLP080 $
Conditions at: RKSO (OSAN (US/KOR-AFB, KR) observed 0015 UTC 05 June 2020
Temperature: 20.0°C (68°F)
Dewpoint: 19.0°C (66°F) [RH = 94%]
Pressure (altimeter): 29.76 inches Hg (1007.9 mb)
[Sea-level pressure: 1008.0 mb]
Winds: calm
Visibility: 4 miles ( 6 km)
Ceiling: 1100 feet AGL
Clouds: overcast cloud deck at 1100 feet AGL
Weather: BR  (mist)
SOME DATA ABOVE MAY BE INACCURATE!!!
"$" is an indication the sensor requires maintenance

METAR text: RKSO 042328Z 30003KT 3SM BR FEW006 OVC010 20/19 A2975 RMK AO2A SLP077
Conditions at: RKSO (OSAN (US/KOR-AFB, KR) observed 2328 UTC 04 June 2020
Temperature: 20.0°C (68°F)
Dewpoint: 19.0°C (66°F) [RH = 94%]
Pressure (altimeter): 29.75 inches Hg (1007.5 mb)
[Sea-level pressure: 1007.7 mb]
Winds: from the WNW (300 degrees) at 3 MPH (3 knots; 1.5 m/s)
Visibility: 3 miles ( 5 km)
Ceiling: 1000 feet AGL
Clouds: few clouds at 600 feet AGL
overcast cloud deck at 1000 feet AGL
Weather: BR  (mist)

METAR text: RKSO 042308Z COR AUTO 33006KT 3SM BR OVC008 20/19 A2975 RMK AO2 CIG 006V008 SLP077 $ COR 2319
Conditions at: RKSO (OSAN (US/KOR-AFB, KR) observed 2308 UTC 04 June 2020
Temperature: 20.0°C (68°F)
Dewpoint: 19.0°C (66°F) [RH = 94%]
Pressure (altimeter): 29.75 inches Hg (1007.5 mb)
[Sea-level pressure: 1007.7 mb]
Winds: from the NNW (330 degrees) at 7 MPH (6 knots; 3.1 m/s)
Visibility: 3 miles ( 5 km)
Ceiling: 800 feet AGL
Clouds: overcast cloud deck at 800 feet AGL
Weather: BR  (mist)
SOME DATA ABOVE MAY BE INACCURATE!!!
"$" is an indication the sensor requires maintenance

METAR text: RKSO 042258Z AUTO 32005KT 4SM BR OVC006 20/19 A2975 RMK AO2 SLP077 T01950191 $
Conditions at: RKSO (OSAN (US/KOR-AFB, KR) observed 2258 UTC 04 June 2020
Temperature: 19.5°C (67°F)
Dewpoint: 19.1°C (66°F) [RH = 98%]
Pressure (altimeter): 29.75 inches Hg (1007.5 mb)
[Sea-level pressure: 1007.7 mb]
Winds: from the NW (320 degrees) at 6 MPH (5 knots; 2.6 m/s)
Visibility: 4 miles ( 6 km)
Ceiling: 600 feet AGL
Clouds: overcast cloud deck at 600 feet AGL
Weather: BR  (mist)
SOME DATA ABOVE MAY BE INACCURATE!!!
"$" is an indication the sensor requires maintenance

METAR text: RKSO 042249Z AUTO 31005KT 2 3/4SM BR OVC006 19/19 A2974 RMK AO2 SLP074 $
Conditions at: RKSO (OSAN (US/KOR-AFB, KR) observed 2249 UTC 04 June 2020
Temperature: 19.0°C (66°F)
Dewpoint: 19.0°C (66°F) [RH = 100%]
Pressure (altimeter): 29.74 inches Hg (1007.2 mb)
[Sea-level pressure: 1007.4 mb]
Winds: from the NW (310 degrees) at 6 MPH (5 knots; 2.6 m/s)
Visibility: 2.75 miles (4.43 km)
Ceiling: 600 feet AGL
Clouds: overcast cloud deck at 600 feet AGL
Weather: BR  (mist)
SOME DATA ABOVE MAY BE INACCURATE!!!
"$" is an indication the sensor requires maintenance

METAR text: RKSO 042239Z AUTO 30004KT 2 1/2SM BR OVC006 19/19 A2974 RMK AO2 SLP074
Conditions at: RKSO (OSAN (US/KOR-AFB, KR) observed 2239 UTC 04 June 2020
Temperature: 19.0°C (66°F)
Dewpoint: 19.0°C (66°F) [RH = 100%]
Pressure (altimeter): 29.74 inches Hg (1007.2 mb)
[Sea-level pressure: 1007.4 mb]
Winds: from the WNW (300 degrees) at 5 MPH (4 knots; 2.1 m/s)
Visibility: 2.50 miles (4.02 km)
Ceiling: 600 feet AGL
Clouds: overcast cloud deck at 600 feet AGL
Weather: BR  (mist)

METAR text: RKSO 042158Z 29003KT 1 7/8SM BR OVC006 19/19 A2974 RMK AO2A SLP074 T01910190 $
Conditions at: RKSO (OSAN (US/KOR-AFB, KR) observed 2158 UTC 04 June 2020
Temperature: 19.1°C (66°F)
Dewpoint: 19.0°C (66°F) [RH = 99%]
Pressure (altimeter): 29.74 inches Hg (1007.2 mb)
[Sea-level pressure: 1007.4 mb]
Winds: from the WNW (290 degrees) at 3 MPH (3 knots; 1.5 m/s)
Visibility: 1.88 miles (3.03 km)
Ceiling: 600 feet AGL
Clouds: overcast cloud deck at 600 feet AGL
Weather: BR  (mist)
SOME DATA ABOVE MAY BE INACCURATE!!!
"$" is an indication the sensor requires maintenance

METAR text: RKSO 042142Z 30005KT 1 3/8SM BR OVC005 19/19 A2973 RMK AO2A SLP070 $
Conditions at: RKSO (OSAN (US/KOR-AFB, KR) observed 2142 UTC 04 June 2020
Temperature: 19.0°C (66°F)
Dewpoint: 19.0°C (66°F) [RH = 100%]
Pressure (altimeter): 29.73 inches Hg (1006.9 mb)
[Sea-level pressure: 1007.0 mb]
Winds: from the WNW (300 degrees) at 6 MPH (5 knots; 2.6 m/s)
Visibility: 1.38 miles (2.22 km)
Ceiling: 500 feet AGL
Clouds: overcast cloud deck at 500 feet AGL
Weather: BR  (mist)
SOME DATA ABOVE MAY BE INACCURATE!!!
"$" is an indication the sensor requires maintenance

METAR text: RKSO 042110Z 33004KT 1 1/4SM BR OVC005 19/19 A2973 RMK AO2A SLP070 $
Conditions at: RKSO (OSAN (US/KOR-AFB, KR) observed 2110 UTC 04 June 2020
Temperature: 19.0°C (66°F)
Dewpoint: 19.0°C (66°F) [RH = 100%]
Pressure (altimeter): 29.73 inches Hg (1006.9 mb)
[Sea-level pressure: 1007.0 mb]
Winds: from the NNW (330 degrees) at 5 MPH (4 knots; 2.1 m/s)
Visibility: 1.25 miles (2.01 km)
Ceiling: 500 feet AGL
Clouds: overcast cloud deck at 500 feet AGL
Weather: BR  (mist)
SOME DATA ABOVE MAY BE INACCURATE!!!
"$" is an indication the sensor requires maintenance

METAR text: RKSO 042058Z 32005KT 1SM BR OVC005 19/19 A2973 RMK AO2A SLP070 T01900189 53005 $
Conditions at: RKSO (OSAN (US/KOR-AFB, KR) observed 2058 UTC 04 June 2020
Temperature: 19.0°C (66°F)
Dewpoint: 18.9°C (66°F) [RH = 99%]
Pressure (altimeter): 29.73 inches Hg (1006.9 mb)
[Sea-level pressure: 1007.0 mb]
Winds: from the NW (320 degrees) at 6 MPH (5 knots; 2.6 m/s)
Visibility: 1.00 miles (1.61 km)
Ceiling: 500 feet AGL
Clouds: overcast cloud deck at 500 feet AGL
Weather: BR  (mist)
SOME DATA ABOVE MAY BE INACCURATE!!!
"$" is an indication the sensor requires maintenance

METAR text: RKSO 042038Z 30005KT 1SM BR OVC005 19/19 A2973 RMK AO2A SLP070 $
Conditions at: RKSO (OSAN (US/KOR-AFB, KR) observed 2038 UTC 04 June 2020
Temperature: 19.0°C (66°F)
Dewpoint: 19.0°C (66°F) [RH = 100%]
Pressure (altimeter): 29.73 inches Hg (1006.9 mb)
[Sea-level pressure: 1007.0 mb]
Winds: from the WNW (300 degrees) at 6 MPH (5 knots; 2.6 m/s)
Visibility: 1.00 miles (1.61 km)
Ceiling: 500 feet AGL
Clouds: overcast cloud deck at 500 feet AGL
Weather: BR  (mist)
SOME DATA ABOVE MAY BE INACCURATE!!!
"$" is an indication the sensor requires maintenance

METAR text: RKSO 041958Z 27003KT 3/4SM BR OVC005 19/19 A2972 RMK AO2A SLP067 $
Conditions at: RKSO (OSAN (US/KOR-AFB, KR) observed 1958 UTC 04 June 2020
Temperature: 19.0°C (66°F)
Dewpoint: 19.0°C (66°F) [RH = 100%]
Pressure (altimeter): 29.72 inches Hg (1006.5 mb)
[Sea-level pressure: 1006.7 mb]
Winds: from the W (270 degrees) at 3 MPH (3 knots; 1.5 m/s)
Visibility: 0.75 miles (1.21 km)
Ceiling: 500 feet AGL
Clouds: overcast cloud deck at 500 feet AGL
Weather: BR  (mist)
SOME DATA ABOVE MAY BE INACCURATE!!!
"$" is an indication the sensor requires maintenance

METAR text: RKSO 041858Z 00000KT 3SM BR OVC004 19/19 A2972 RMK AO2A SLP067 $
Conditions at: RKSO (OSAN (US/KOR-AFB, KR) observed 1858 UTC 04 June 2020
Temperature: 19.0°C (66°F)
Dewpoint: 19.0°C (66°F) [RH = 100%]
Pressure (altimeter): 29.72 inches Hg (1006.5 mb)
[Sea-level pressure: 1006.7 mb]
Winds: calm
Visibility: 3 miles ( 5 km)
Ceiling: 400 feet AGL
Clouds: overcast cloud deck at 400 feet AGL
Weather: BR  (mist)
SOME DATA ABOVE MAY BE INACCURATE!!!
"$" is an indication the sensor requires maintenance

METAR text: RKSO 041758Z 31003KT 2SM BR OVC003 19/19 A2972 RMK AO2A SLP067 T01910190 10219 20191 51002 $
Conditions at: RKSO (OSAN (US/KOR-AFB, KR) observed 1758 UTC 04 June 2020
Temperature: 19.1°C (66°F)
Dewpoint: 19.0°C (66°F) [RH = 99%]
Pressure (altimeter): 29.72 inches Hg (1006.5 mb)
[Sea-level pressure: 1006.7 mb]
Winds: from the NW (310 degrees) at 3 MPH (3 knots; 1.5 m/s)
Visibility: 2.00 miles (3.22 km)
Ceiling: 300 feet AGL
Clouds: overcast cloud deck at 300 feet AGL
Weather: BR  (mist)
SOME DATA ABOVE MAY BE INACCURATE!!!
"$" is an indication the sensor requires maintenance

METAR text: RKSO 041658Z 26004KT 2SM BR OVC005 20/19 A2972 RMK AO2A SLP067 T01950194 $
Conditions at: RKSO (OSAN (US/KOR-AFB, KR) observed 1658 UTC 04 June 2020
Temperature: 19.5°C (67°F)
Dewpoint: 19.4°C (67°F) [RH = 99%]
Pressure (altimeter): 29.72 inches Hg (1006.5 mb)
[Sea-level pressure: 1006.7 mb]
Winds: from the W (260 degrees) at 5 MPH (4 knots; 2.1 m/s)
Visibility: 2.00 miles (3.22 km)
Ceiling: 500 feet AGL
Clouds: overcast cloud deck at 500 feet AGL
Weather: BR  (mist)
SOME DATA ABOVE MAY BE INACCURATE!!!
"$" is an indication the sensor requires maintenance

METAR text: RKSO 041358Z 27005KT 3SM -DZ BR OVC005 21/21 A2971 RMK AO2A SLP063 T02070205 $
Conditions at: RKSO (OSAN (US/KOR-AFB, KR) observed 1358 UTC 04 June 2020
Temperature: 20.7°C (69°F)
Dewpoint: 20.5°C (69°F) [RH = 99%]
Pressure (altimeter): 29.71 inches Hg (1006.2 mb)
[Sea-level pressure: 1006.3 mb]
Winds: from the W (270 degrees) at 6 MPH (5 knots; 2.6 m/s)
Visibility: 3 miles ( 5 km)
Ceiling: 500 feet AGL
Clouds: overcast cloud deck at 500 feet AGL
Weather: -DZ BR  (light drizzle, mist)
SOME DATA ABOVE MAY BE INACCURATE!!!
"$" is an indication the sensor requires maintenance

METAR text: RKSO 041258Z 25007KT 3SM BR OVC005 21/21 A2969 RMK AO2A SLP057 $
Conditions at: RKSO (OSAN (US/KOR-AFB, KR) observed 1258 UTC 04 June 2020
Temperature: 21.0°C (70°F)
Dewpoint: 21.0°C (70°F) [RH = 100%]
Pressure (altimeter): 29.69 inches Hg (1005.5 mb)
[Sea-level pressure: 1005.7 mb]
Winds: from the WSW (250 degrees) at 8 MPH (7 knots; 3.6 m/s)
Visibility: 3 miles ( 5 km)
Ceiling: 500 feet AGL
Clouds: overcast cloud deck at 500 feet AGL
Weather: BR  (mist)
SOME DATA ABOVE MAY BE INACCURATE!!!
"$" is an indication the sensor requires maintenance

METAR text: RKSO 041228Z 25006KT 7SM OVC007 22/21 A2968 RMK AO2A CIG 007V009 SLP053 $
Conditions at: RKSO (OSAN (US/KOR-AFB, KR) observed 1228 UTC 04 June 2020
Temperature: 22.0°C (72°F)
Dewpoint: 21.0°C (70°F) [RH = 94%]
Pressure (altimeter): 29.68 inches Hg (1005.2 mb)
[Sea-level pressure: 1005.3 mb]
Winds: from the WSW (250 degrees) at 7 MPH (6 knots; 3.1 m/s)
Visibility: 7 miles (11 km)
Ceiling: 700 feet AGL
Clouds: overcast cloud deck at 700 feet AGL
Weather:
SOME DATA ABOVE MAY BE INACCURATE!!!
"$" is an indication the sensor requires maintenance

METAR text: RKSO 041220Z 26004KT 3SM BR OVC008 22/21 A2968 RMK SLP053
Conditions at: RKSO (OSAN (US/KOR-AFB, KR) observed 1220 UTC 04 June 2020
Temperature: 22.0°C (72°F)
Dewpoint: 21.0°C (70°F) [RH = 94%]
Pressure (altimeter): 29.68 inches Hg (1005.2 mb)
[Sea-level pressure: 1005.3 mb]
Winds: from the W (260 degrees) at 5 MPH (4 knots; 2.1 m/s)
Visibility: 3 miles ( 5 km)
Ceiling: 800 feet AGL
Clouds: overcast cloud deck at 800 feet AGL
Weather: BR  (mist)

METAR text: RKSO 041158Z 28005KT 4SM BR OVC010 22/21 A2967 RMK AO2A SLP050 T02190206 10279 20219 52017 $
Conditions at: RKSO (OSAN (US/KOR-AFB, KR) observed 1158 UTC 04 June 2020
Temperature: 21.9°C (71°F)
Dewpoint: 20.6°C (69°F) [RH = 92%]
Pressure (altimeter): 29.67 inches Hg (1004.8 mb)
[Sea-level pressure: 1005.0 mb]
Winds: from the W (280 degrees) at 6 MPH (5 knots; 2.6 m/s)
Visibility: 4 miles ( 6 km)
Ceiling: 1000 feet AGL
Clouds: overcast cloud deck at 1000 feet AGL
Weather: BR  (mist)
SOME DATA ABOVE MAY BE INACCURATE!!!
"$" is an indication the sensor requires maintenance

METAR text: RKSO 041058Z 27005KT 5SM BR OVC013 22/20 A2965 RMK AO2A SLP043 T02210202 $
Conditions at: RKSO (OSAN (US/KOR-AFB, KR) observed 1058 UTC 04 June 2020
Temperature: 22.1°C (72°F)
Dewpoint: 20.2°C (68°F) [RH = 89%]
Pressure (altimeter): 29.65 inches Hg (1004.1 mb)
[Sea-level pressure: 1004.3 mb]
Winds: from the W (270 degrees) at 6 MPH (5 knots; 2.6 m/s)
Visibility: 5 miles ( 8 km)
Ceiling: 1300 feet AGL
Clouds: overcast cloud deck at 1300 feet AGL
Weather: BR  (mist)
SOME DATA ABOVE MAY BE INACCURATE!!!
"$" is an indication the sensor requires maintenance

METAR text: RKSO 040958Z 27008KT 5SM BR BKN017 23/20 A2963 RMK AO2A SLP036 T02260200 $
Conditions at: RKSO (OSAN (US/KOR-AFB, KR) observed 0958 UTC 04 June 2020
Temperature: 22.6°C (73°F)
Dewpoint: 20.0°C (68°F) [RH = 85%]
Pressure (altimeter): 29.63 inches Hg (1003.5 mb)
[Sea-level pressure: 1003.6 mb]
Winds: from the W (270 degrees) at 9 MPH (8 knots; 4.1 m/s)
Visibility: 5 miles ( 8 km)
Ceiling: 1700 feet AGL
Clouds: broken clouds at 1700 feet AGL
Weather: BR  (mist)
SOME DATA ABOVE MAY BE INACCURATE!!!
"$" is an indication the sensor requires maintenance

METAR text: RKSO 040949Z 26007KT 5SM BR BKN019 23/20 A2963 RMK SLP036
Conditions at: RKSO (OSAN (US/KOR-AFB, KR) observed 0949 UTC 04 June 2020
Temperature: 23.0°C (73°F)
Dewpoint: 20.0°C (68°F) [RH = 83%]
Pressure (altimeter): 29.63 inches Hg (1003.5 mb)
[Sea-level pressure: 1003.6 mb]
Winds: from the W (260 degrees) at 8 MPH (7 knots; 3.6 m/s)
Visibility: 5 miles ( 8 km)
Ceiling: 1900 feet AGL
Clouds: broken clouds at 1900 feet AGL
Weather: BR  (mist)

METAR text: RKSO 040920Z 26008KT 6SM HZ SCT022 24/20 A2963 RMK AO2A BKN V SCT SLP036
Conditions at: RKSO (OSAN (US/KOR-AFB, KR) observed 0920 UTC 04 June 2020
Temperature: 24.0°C (75°F)
Dewpoint: 20.0°C (68°F) [RH = 78%]
Pressure (altimeter): 29.63 inches Hg (1003.5 mb)
[Sea-level pressure: 1003.6 mb]
Winds: from the W (260 degrees) at 9 MPH (8 knots; 4.1 m/s)
Visibility: 6 miles (10 km)
Ceiling: at least 12,000 feet AGL
Clouds: scattered clouds at 2200 feet AGL
Weather: HZ  (haze)

METAR text: RKSO 040910Z AUTO 28010KT 7SM FEW023 24/20 A2962 RMK AO2 SLP033
Conditions at: RKSO (OSAN (US/KOR-AFB, KR) observed 0910 UTC 04 June 2020
Temperature: 24.0°C (75°F)
Dewpoint: 20.0°C (68°F) [RH = 78%]
Pressure (altimeter): 29.62 inches Hg (1003.1 mb)
[Sea-level pressure: 1003.3 mb]
Winds: from the W (280 degrees) at 12 MPH (10 knots; 5.1 m/s)
Visibility: 7 miles (11 km)
Ceiling: at least 12,000 feet AGL
Clouds: few clouds at 2300 feet AGL
Weather: automated observation with no human augmentation;
there may or may not be significant weather present at this time

METAR text: RKSO 040858Z 29010KT 6SM HZ FEW030 25/20 A2962 RMK AO2A SLP033 T02450202 53006 $
Conditions at: RKSO (OSAN (US/KOR-AFB, KR) observed 0858 UTC 04 June 2020
Temperature: 24.5°C (76°F)
Dewpoint: 20.2°C (68°F) [RH = 77%]
Pressure (altimeter): 29.62 inches Hg (1003.1 mb)
[Sea-level pressure: 1003.3 mb]
Winds: from the WNW (290 degrees) at 12 MPH (10 knots; 5.1 m/s)
Visibility: 6 miles (10 km)
Ceiling: at least 12,000 feet AGL
Clouds: few clouds at 3000 feet AGL
Weather: HZ  (haze)
SOME DATA ABOVE MAY BE INACCURATE!!!
"$" is an indication the sensor requires maintenance

METAR text: RKSO 040758Z 29012KT 6SM HZ SCT030 26/20 A2961 RMK AO2A SLP030 T02620203 $
Conditions at: RKSO (OSAN (US/KOR-AFB, KR) observed 0758 UTC 04 June 2020
Temperature: 26.2°C (79°F)
Dewpoint: 20.3°C (69°F) [RH = 70%]
Pressure (altimeter): 29.61 inches Hg (1002.8 mb)
[Sea-level pressure: 1003.0 mb]
Winds: from the WNW (290 degrees) at 14 MPH (12 knots; 6.2 m/s)
Visibility: 6 miles (10 km)
Ceiling: at least 12,000 feet AGL
Clouds: scattered clouds at 3000 feet AGL
Weather: HZ  (haze)
SOME DATA ABOVE MAY BE INACCURATE!!!
"$" is an indication the sensor requires maintenance

METAR text: RKSO 040658Z 25011KT 6SM HZ SCT029 27/20 A2960 RMK AO2A SLP026 T02730196 $
Conditions at: RKSO (OSAN (US/KOR-AFB, KR) observed 0658 UTC 04 June 2020
Temperature: 27.3°C (81°F)
Dewpoint: 19.6°C (67°F) [RH = 63%]
Pressure (altimeter): 29.60 inches Hg (1002.5 mb)
[Sea-level pressure: 1002.6 mb]
Winds: from the WSW (250 degrees) at 13 MPH (11 knots; 5.7 m/s)
Visibility: 6 miles (10 km)
Ceiling: at least 12,000 feet AGL
Clouds: scattered clouds at 2900 feet AGL
Weather: HZ  (haze)
SOME DATA ABOVE MAY BE INACCURATE!!!
"$" is an indication the sensor requires maintenance

METAR text: RKSO 040558Z 24009KT 6SM HZ FEW040 28/20 A2960 RMK AO2A SLP026 T02790199 10285 20223 56009 $
Conditions at: RKSO (OSAN (US/KOR-AFB, KR) observed 0558 UTC 04 June 2020
Temperature: 27.9°C (82°F)
Dewpoint: 19.9°C (68°F) [RH = 62%]
Pressure (altimeter): 29.60 inches Hg (1002.5 mb)
[Sea-level pressure: 1002.6 mb]
Winds: from the WSW (240 degrees) at 10 MPH (9 knots; 4.6 m/s)
Visibility: 6 miles (10 km)
Ceiling: at least 12,000 feet AGL
Clouds: few clouds at 4000 feet AGL
Weather: HZ  (haze)
SOME DATA ABOVE MAY BE INACCURATE!!!
"$" is an indication the sensor requires maintenance

METAR text: RKSO 040458Z 23011KT 6SM HZ SCT030 28/19 A2960 RMK AO2A SLP026 T02770192 $
Conditions at: RKSO (OSAN (US/KOR-AFB, KR) observed 0458 UTC 04 June 2020
Temperature: 27.7°C (82°F)
Dewpoint: 19.2°C (67°F) [RH = 60%]
Pressure (altimeter): 29.60 inches Hg (1002.5 mb)
[Sea-level pressure: 1002.6 mb]
Winds: from the SW (230 degrees) at 13 MPH (11 knots; 5.7 m/s)
Visibility: 6 miles (10 km)
Ceiling: at least 12,000 feet AGL
Clouds: scattered clouds at 3000 feet AGL
Weather: HZ  (haze)
SOME DATA ABOVE MAY BE INACCURATE!!!
"$" is an indication the sensor requires maintenance

METAR text: RKSO 040358Z 24006KT 5SM HZ SCT028 27/19 A2961 RMK AO2A SLP030 T02680188
Conditions at: RKSO (OSAN (US/KOR-AFB, KR) observed 0358 UTC 04 June 2020
Temperature: 26.8°C (80°F)
Dewpoint: 18.8°C (66°F) [RH = 62%]
Pressure (altimeter): 29.61 inches Hg (1002.8 mb)
[Sea-level pressure: 1003.0 mb]
Winds: from the WSW (240 degrees) at 7 MPH (6 knots; 3.1 m/s)
Visibility: 5 miles ( 8 km)
Ceiling: at least 12,000 feet AGL
Clouds: scattered clouds at 2800 feet AGL
Weather: HZ  (haze)

METAR text: RKSO 040258Z 23007KT 5SM HZ SCT026 26/19 A2963 RMK AO2A SLP036 T02560187 58003 $
Conditions at: RKSO (OSAN (US/KOR-AFB, KR) observed 0258 UTC 04 June 2020
Temperature: 25.6°C (78°F)
Dewpoint: 18.7°C (66°F) [RH = 66%]
Pressure (altimeter): 29.63 inches Hg (1003.5 mb)
[Sea-level pressure: 1003.6 mb]
Winds: from the SW (230 degrees) at 8 MPH (7 knots; 3.6 m/s)
Visibility: 5 miles ( 8 km)
Ceiling: at least 12,000 feet AGL
Clouds: scattered clouds at 2600 feet AGL
Weather: HZ  (haze)
SOME DATA ABOVE MAY BE INACCURATE!!!
"$" is an indication the sensor requires maintenance

METAR text: RKSO 040158Z 21006KT 5SM HZ SCT021 25/19 A2964 RMK AO2A SLP040 T02510187 $
Conditions at: RKSO (OSAN (US/KOR-AFB, KR) observed 0158 UTC 04 June 2020
Temperature: 25.1°C (77°F)
Dewpoint: 18.7°C (66°F) [RH = 68%]
Pressure (altimeter): 29.64 inches Hg (1003.8 mb)
[Sea-level pressure: 1004.0 mb]
Winds: from the SSW (210 degrees) at 7 MPH (6 knots; 3.1 m/s)
Visibility: 5 miles ( 8 km)
Ceiling: at least 12,000 feet AGL
Clouds: scattered clouds at 2100 feet AGL
Weather: HZ  (haze)
SOME DATA ABOVE MAY BE INACCURATE!!!
"$" is an indication the sensor requires maintenance

METAR text: RKSO 040058Z 24009KT 4SM BR BKN020 BKN026 24/19 A2964 RMK SLP040
Conditions at: RKSO (OSAN (US/KOR-AFB, KR) observed 0058 UTC 04 June 2020
Temperature: 24.0°C (75°F)
Dewpoint: 19.0°C (66°F) [RH = 74%]
Pressure (altimeter): 29.64 inches Hg (1003.8 mb)
[Sea-level pressure: 1004.0 mb]
Winds: from the WSW (240 degrees) at 10 MPH (9 knots; 4.6 m/s)
Visibility: 4 miles ( 6 km)
Ceiling: 2000 feet AGL
Clouds: broken clouds at 2000 feet AGL
broken clouds at 2600 feet AGL
Weather: BR  (mist)

METAR text: RKSO 032358Z 23008KT 4SM BR FEW014 BKN020 22/19 A2964 RMK AO2A SLP040 T02230187 10224 20200 52005 $
Conditions at: RKSO (OSAN (US/KOR-AFB, KR) observed 2358 UTC 03 June 2020
Temperature: 22.3°C (72°F)
Dewpoint: 18.7°C (66°F) [RH = 80%]
Pressure (altimeter): 29.64 inches Hg (1003.8 mb)
[Sea-level pressure: 1004.0 mb]
Winds: from the SW (230 degrees) at 9 MPH (8 knots; 4.1 m/s)
Visibility: 4 miles ( 6 km)
Ceiling: 2000 feet AGL
Clouds: few clouds at 1400 feet AGL
broken clouds at 2000 feet AGL
Weather: BR  (mist)
SOME DATA ABOVE MAY BE INACCURATE!!!
"$" is an indication the sensor requires maintenance

METAR text: RKSO 032331Z 22009KT 3SM BR SCT012 BKN019 22/20 A2963 RMK CIG 012 RWY09 SLP036 $
Conditions at: RKSO (OSAN (US/KOR-AFB, KR) observed 2331 UTC 03 June 2020
Temperature: 22.0°C (72°F)
Dewpoint: 20.0°C (68°F) [RH = 88%]
Pressure (altimeter): 29.63 inches Hg (1003.5 mb)
[Sea-level pressure: 1003.6 mb]
Winds: from the SW (220 degrees) at 10 MPH (9 knots; 4.6 m/s)
Visibility: 3 miles ( 5 km)
Ceiling: 1900 feet AGL
Clouds: scattered clouds at 1200 feet AGL
broken clouds at 1900 feet AGL
Weather: BR  (mist)
SOME DATA ABOVE MAY BE INACCURATE!!!
"$" is an indication the sensor requires maintenance

METAR text: RKSO 032258Z 22007KT 1 5/8SM BR OVC007 21/20 A2963 RMK AO2A DZE2158 SLP036 T02080200 $
Conditions at: RKSO (OSAN (US/KOR-AFB, KR) observed 2258 UTC 03 June 2020
Temperature: 20.8°C (69°F)
Dewpoint: 20.0°C (68°F) [RH = 95%]
Pressure (altimeter): 29.63 inches Hg (1003.5 mb)
[Sea-level pressure: 1003.6 mb]
Winds: from the SW (220 degrees) at 8 MPH (7 knots; 3.6 m/s)
Visibility: 1.63 miles (2.62 km)
Ceiling: 700 feet AGL
Clouds: overcast cloud deck at 700 feet AGL
Weather: BR  (mist)
SOME DATA ABOVE MAY BE INACCURATE!!!
"$" is an indication the sensor requires maintenance

METAR text: RKSO 032242Z 22008KT 1 1/2SM BR OVC006 20/20 A2963 RMK DZE2158 SLP036
Conditions at: RKSO (OSAN (US/KOR-AFB, KR) observed 2242 UTC 03 June 2020
Temperature: 20.0°C (68°F)
Dewpoint: 20.0°C (68°F) [RH = 100%]
Pressure (altimeter): 29.63 inches Hg (1003.5 mb)
[Sea-level pressure: 1003.6 mb]
Winds: from the SW (220 degrees) at 9 MPH (8 knots; 4.1 m/s)
Visibility: 1.50 miles (2.41 km)
Ceiling: 600 feet AGL
Clouds: overcast cloud deck at 600 feet AGL
Weather: BR  (mist)

METAR text: RKSO 032211Z 22008KT 5/8SM -DZ BR OVC006 20/20 A2963 RMK AO2A SLP036 $
Conditions at: RKSO (OSAN (US/KOR-AFB, KR) observed 2211 UTC 03 June 2020
Temperature: 20.0°C (68°F)
Dewpoint: 20.0°C (68°F) [RH = 100%]
Pressure (altimeter): 29.63 inches Hg (1003.5 mb)
[Sea-level pressure: 1003.6 mb]
Winds: from the SW (220 degrees) at 9 MPH (8 knots; 4.1 m/s)
Visibility: 0.63 miles (1.01 km)
Ceiling: 600 feet AGL
Clouds: overcast cloud deck at 600 feet AGL
Weather: -DZ BR  (light drizzle, mist)
SOME DATA ABOVE MAY BE INACCURATE!!!
"$" is an indication the sensor requires maintenance

METAR text: RKSO 032204Z 22008KT 1SM -DZ BR OVC006 20/20 A2963 RMK AO2A SLP036 $
Conditions at: RKSO (OSAN (US/KOR-AFB, KR) observed 2204 UTC 03 June 2020
Temperature: 20.0°C (68°F)
Dewpoint: 20.0°C (68°F) [RH = 100%]
Pressure (altimeter): 29.63 inches Hg (1003.5 mb)
[Sea-level pressure: 1003.6 mb]
Winds: from the SW (220 degrees) at 9 MPH (8 knots; 4.1 m/s)
Visibility: 1.00 miles (1.61 km)
Ceiling: 600 feet AGL
Clouds: overcast cloud deck at 600 feet AGL
Weather: -DZ BR  (light drizzle, mist)
SOME DATA ABOVE MAY BE INACCURATE!!!
"$" is an indication the sensor requires maintenance

METAR text: RKSO 032158Z 22008KT 1 1/4SM -DZ BR BKN006 OVC013 20/20 A2963 RMK AO2A DZB49 SLP036 P0000 T02040200 $
Conditions at: RKSO (OSAN (US/KOR-AFB, KR) observed 2158 UTC 03 June 2020
Temperature: 20.4°C (69°F)
Dewpoint: 20.0°C (68°F) [RH = 98%]
Pressure (altimeter): 29.63 inches Hg (1003.5 mb)
[Sea-level pressure: 1003.6 mb]
Winds: from the SW (220 degrees) at 9 MPH (8 knots; 4.1 m/s)
Visibility: 1.25 miles (2.01 km)
Ceiling: 600 feet AGL
Clouds: broken clouds at 600 feet AGL
overcast cloud deck at 1300 feet AGL
Weather: -DZ BR  (light drizzle, mist)
SOME DATA ABOVE MAY BE INACCURATE!!!
"$" is an indication the sensor requires maintenance

METAR text: RKSO 032142Z 22009KT 1 3/4SM BR SCT007 OVC014 21/20 A2963 RMK AO2A SCT V BKN SLP036 $
Conditions at: RKSO (OSAN (US/KOR-AFB, KR) observed 2142 UTC 03 June 2020
Temperature: 21.0°C (70°F)
Dewpoint: 20.0°C (68°F) [RH = 94%]
Pressure (altimeter): 29.63 inches Hg (1003.5 mb)
[Sea-level pressure: 1003.6 mb]
Winds: from the SW (220 degrees) at 10 MPH (9 knots; 4.6 m/s)
Visibility: 1.75 miles (2.82 km)
Ceiling: 1400 feet AGL
Clouds: scattered clouds at 700 feet AGL
overcast cloud deck at 1400 feet AGL
Weather: BR  (mist)
SOME DATA ABOVE MAY BE INACCURATE!!!
"$" is an indication the sensor requires maintenance

METAR text: RKSO 032058Z 23010KT 3SM BR SCT009 OVC014 21/20 A2962 RMK AO2A SLP033 T02100198 52006 $
Conditions at: RKSO (OSAN (US/KOR-AFB, KR) observed 2058 UTC 03 June 2020
Temperature: 21.0°C (70°F)
Dewpoint: 19.8°C (68°F) [RH = 93%]
Pressure (altimeter): 29.62 inches Hg (1003.1 mb)
[Sea-level pressure: 1003.3 mb]
Winds: from the SW (230 degrees) at 12 MPH (10 knots; 5.1 m/s)
Visibility: 3 miles ( 5 km)
Ceiling: 1400 feet AGL
Clouds: scattered clouds at 900 feet AGL
overcast cloud deck at 1400 feet AGL
Weather: BR  (mist)
SOME DATA ABOVE MAY BE INACCURATE!!!
"$" is an indication the sensor requires maintenance

METAR text: RKSO 031958Z 24006KT 2SM BR OVC017 21/20 A2961 RMK AO2A SLP029 T02130200 $
Conditions at: RKSO (OSAN (US/KOR-AFB, KR) observed 1958 UTC 03 June 2020
Temperature: 21.3°C (70°F)
Dewpoint: 20.0°C (68°F) [RH = 92%]
Pressure (altimeter): 29.61 inches Hg (1002.8 mb)
[Sea-level pressure: 1002.9 mb]
Winds: from the WSW (240 degrees) at 7 MPH (6 knots; 3.1 m/s)
Visibility: 2.00 miles (3.22 km)
Ceiling: 1700 feet AGL
Clouds: overcast cloud deck at 1700 feet AGL
Weather: BR  (mist)
SOME DATA ABOVE MAY BE INACCURATE!!!
"$" is an indication the sensor requires maintenance

METAR text: RKSO 031858Z 21007KT 2 1/2SM BR BKN010 OVC014 21/21 A2961 RMK AO2A SLP030 T02130205 $
Conditions at: RKSO (OSAN (US/KOR-AFB, KR) observed 1858 UTC 03 June 2020
Temperature: 21.3°C (70°F)
Dewpoint: 20.5°C (69°F) [RH = 95%]
Pressure (altimeter): 29.61 inches Hg (1002.8 mb)
[Sea-level pressure: 1003.0 mb]
Winds: from the SSW (210 degrees) at 8 MPH (7 knots; 3.6 m/s)
Visibility: 2.50 miles (4.02 km)
Ceiling: 1000 feet AGL
Clouds: broken clouds at 1000 feet AGL
overcast cloud deck at 1400 feet AGL
Weather: BR  (mist)
SOME DATA ABOVE MAY BE INACCURATE!!!
"$" is an indication the sensor requires maintenance

METAR text: RKSO 031758Z 22010KT 2 1/2SM BR OVC006 21/21 A2960 RMK AO2A SLP026 58005 $
Conditions at: RKSO (OSAN (US/KOR-AFB, KR) observed 1758 UTC 03 June 2020
Temperature: 21.0°C (70°F)
Dewpoint: 21.0°C (70°F) [RH = 100%]
Pressure (altimeter): 29.60 inches Hg (1002.5 mb)
[Sea-level pressure: 1002.6 mb]
Winds: from the SW (220 degrees) at 12 MPH (10 knots; 5.1 m/s)
Visibility: 2.50 miles (4.02 km)
Ceiling: 600 feet AGL
Clouds: overcast cloud deck at 600 feet AGL
Weather: BR  (mist)
SOME DATA ABOVE MAY BE INACCURATE!!!
"$" is an indication the sensor requires maintenance

METAR text: RKSO 031658Z 00000KT 4SM BR BKN010 OVC015 21/20 A2962 RMK AO2A SLP033 T02130203 $
Conditions at: RKSO (OSAN (US/KOR-AFB, KR) observed 1658 UTC 03 June 2020
Temperature: 21.3°C (70°F)
Dewpoint: 20.3°C (69°F) [RH = 94%]
Pressure (altimeter): 29.62 inches Hg (1003.1 mb)
[Sea-level pressure: 1003.3 mb]
Winds: calm
Visibility: 4 miles ( 6 km)
Ceiling: 1000 feet AGL
Clouds: broken clouds at 1000 feet AGL
overcast cloud deck at 1500 feet AGL
Weather: BR  (mist)
SOME DATA ABOVE MAY BE INACCURATE!!!
"$" is an indication the sensor requires maintenance

METAR text: RKSO 031638Z 00000KT 4SM BR SCT014 BKN027 21/20 A2962 RMK AO2A BKN V SCT SLP033 $
Conditions at: RKSO (OSAN (US/KOR-AFB, KR) observed 1638 UTC 03 June 2020
Temperature: 21.0°C (70°F)
Dewpoint: 20.0°C (68°F) [RH = 94%]
Pressure (altimeter): 29.62 inches Hg (1003.1 mb)
[Sea-level pressure: 1003.3 mb]
Winds: calm
Visibility: 4 miles ( 6 km)
Ceiling: 2700 feet AGL
Clouds: scattered clouds at 1400 feet AGL
broken clouds at 2700 feet AGL
Weather: BR  (mist)
SOME DATA ABOVE MAY BE INACCURATE!!!
"$" is an indication the sensor requires maintenance

METAR text: RKSO 031628Z AUTO 00000KT 7SM SCT018 SCT028 21/20 A2962 RMK AO2 SLP033 $
Conditions at: RKSO (OSAN (US/KOR-AFB, KR) observed 1628 UTC 03 June 2020
Temperature: 21.0°C (70°F)
Dewpoint: 20.0°C (68°F) [RH = 94%]
Pressure (altimeter): 29.62 inches Hg (1003.1 mb)
[Sea-level pressure: 1003.3 mb]
Winds: calm
Visibility: 7 miles (11 km)
Ceiling: at least 12,000 feet AGL
Clouds: scattered clouds at 1800 feet AGL
scattered clouds at 2800 feet AGL
Weather:
SOME DATA ABOVE MAY BE INACCURATE!!!
"$" is an indication the sensor requires maintenance

METAR text: RKSO 031614Z 00000KT 4SM BR SCT013 BKN022 21/20 A2963 RMK AO2A SCT V BKN SLP036
Conditions at: RKSO (OSAN (US/KOR-AFB, KR) observed 1614 UTC 03 June 2020
Temperature: 21.0°C (70°F)
Dewpoint: 20.0°C (68°F) [RH = 94%]
Pressure (altimeter): 29.63 inches Hg (1003.5 mb)
[Sea-level pressure: 1003.6 mb]
Winds: calm
Visibility: 4 miles ( 6 km)
Ceiling: 2200 feet AGL
Clouds: scattered clouds at 1300 feet AGL
broken clouds at 2200 feet AGL
Weather: BR  (mist)

METAR text: RKSO 031558Z 26003KT 4SM BR BKN013 21/20 A2963 RMK AO2A SLP036 T02100200 $
Conditions at: RKSO (OSAN (US/KOR-AFB, KR) observed 1558 UTC 03 June 2020
Temperature: 21.0°C (70°F)
Dewpoint: 20.0°C (68°F) [RH = 94%]
Pressure (altimeter): 29.63 inches Hg (1003.5 mb)
[Sea-level pressure: 1003.6 mb]
Winds: from the W (260 degrees) at 3 MPH (3 knots; 1.5 m/s)
Visibility: 4 miles ( 6 km)
Ceiling: 1300 feet AGL
Clouds: broken clouds at 1300 feet AGL
Weather: BR  (mist)
SOME DATA ABOVE MAY BE INACCURATE!!!
"$" is an indication the sensor requires maintenance

Forecast for: RKSO (OSAN (US/KOR-AFB, KR)
Text: TAF RKSO 050100Z 0501/0607 VRB06KT 6000 BR BKN010 QNH2975INS
Forecast period: 0100 to 0200 UTC 05 June 2020
Forecast type: FROM: standard forecast or significant change
Winds: variable direction winds at 7 MPH (6 knots; 3.1 m/s)
Visibility: 4 miles (6 km)
Ceiling: 1000 feet AGL
Clouds: broken clouds at 1000 feet AGL
Weather: BR  (mist)
Text: BECMG 0502/0503 VRB06KT 8000 BR FEW016 QNH2971INS TX26/0507Z TN14/0520Z
Forecast period: 0200 UTC 05 June 2020 to 0700 UTC 06 June 2020
Forecast type: BECOMING: Conditions expected to become as follows by 0300 UTC 05 June 2020
Winds: variable direction winds at 7 MPH (6 knots; 3.1 m/s)
Visibility: 5 miles (8 km)
Ceiling: at least 12,000 feet AGL
Clouds: few clouds at 1600 feet AGL
Weather: BR  (mist)